Time;durP1;ratioP1;P1;durP2;ratioP2;P2;SDS_P1;SDS_P2;PMS_P1;PMS_P2;Temp;Humidity;BMP_temperature;BMP_pressure;BME280_temperature;BME280_humidity;BME280_pressure;Samples;Min_cycle;Max_cycle;Signal;HPM_P1;HPM_P2
2022/10/07 00:00:00;;;;;;;15.80;7.97;;;;;;;12.76;100.00;100039.38;4423948;32;20131;-75
2022/10/07 00:02:29;;;;;;;11.77;7.50;;;;;;;12.78;100.00;100048.84;4423695;32;20120;-75
2022/10/07 00:04:57;;;;;;;14.85;7.68;;;;;;;12.76;100.00;100044.66;4423899;32;20124;-75
2022/10/07 00:07:24;;;;;;;13.38;7.45;;;;;;;12.77;100.00;100048.97;4423590;32;20394;-75
2022/10/07 00:09:51;;;;;;;18.42;8.25;;;;;;;12.81;100.00;100050.41;4423709;32;20537;-75
2022/10/07 00:12:18;;;;;;;17.83;7.25;;;;;;;12.78;100.00;100048.00;4423652;32;20093;-75
2022/10/07 00:14:45;;;;;;;13.25;7.40;;;;;;;12.82;100.00;100043.34;4423558;32;20085;-75
2022/10/07 00:17:12;;;;;;;14.43;7.30;;;;;;;12.82;100.00;100040.72;4423601;32;20173;-75
2022/10/07 00:19:40;;;;;;;11.48;7.50;;;;;;;12.85;100.00;100040.47;4423546;32;20553;-75
2022/10/07 00:22:06;;;;;;;13.90;7.37;;;;;;;12.76;100.00;100044.66;4423553;32;20144;-75
2022/10/07 00:24:34;;;;;;;12.55;7.25;;;;;;;12.77;100.00;100038.44;4423500;32;20101;-75
2022/10/07 00:27:01;;;;;;;11.07;7.10;;;;;;;12.72;100.00;100037.97;4423591;32;20128;-75
2022/10/07 00:29:28;;;;;;;13.95;7.62;;;;;;;12.70;100.00;100030.22;4423525;32;20137;-75
2022/10/07 00:31:55;;;;;;;12.37;7.20;;;;;;;12.66;100.00;100041.91;4423676;32;20106;-75
2022/10/07 00:34:23;;;;;;;12.52;7.50;;;;;;;12.62;100.00;100042.25;4423383;32;20485;-75
2022/10/07 00:36:50;;;;;;;12.07;6.95;;;;;;;12.56;100.00;100033.87;4423681;32;20105;-75
2022/10/07 00:39:18;;;;;;;17.83;7.50;;;;;;;12.55;100.00;100037.50;4423212;32;20098;-75
2022/10/07 00:41:51;;;;;;;17.87;7.55;;;;;;;12.55;100.00;100028.75;4423403;32;20102;-75
2022/10/07 00:44:36;;;;;;;14.93;7.95;;;;;;;12.51;100.00;100029.97;4423371;32;20101;-75
2022/10/07 00:47:10;;;;;;;11.75;7.37;;;;;;;12.46;100.00;100026.81;4423513;32;20102;-75
2022/10/07 00:49:43;;;;;;;10.95;7.78;;;;;;;12.35;100.00;100027.66;4423295;32;20086;-75
2022/10/07 00:52:12;;;;;;;13.68;7.90;;;;;;;12.28;100.00;100022.03;4409891;32;20090;-74
2022/10/07 00:54:39;;;;;;;15.45;8.38;;;;;;;12.23;100.00;100025.03;4423315;32;20147;-75
2022/10/07 00:57:07;;;;;;;17.37;7.50;;;;;;;12.22;100.00;100031.22;4423372;32;20102;-75
2022/10/07 00:59:35;;;;;;;12.60;6.95;;;;;;;12.22;100.00;100031.22;4423531;32;20163;-75
2022/10/07 01:02:03;;;;;;;15.32;8.00;;;;;;;12.13;100.00;100029.28;4409458;32;20109;-74
2022/10/07 01:04:30;;;;;;;13.93;8.20;;;;;;;12.17;100.00;100024.63;4423373;32;20804;-75
2022/10/07 01:06:57;;;;;;;11.95;7.75;;;;;;;12.13;100.00;100021.41;4423413;32;20109;-75
2022/10/07 01:09:24;;;;;;;14.68;7.93;;;;;;;12.11;100.00;100020.69;4409478;32;20093;-75
2022/10/07 01:12:10;;;;;;;15.02;8.20;;;;;;;12.06;100.00;100012.31;4423429;32;20090;-74
2022/10/07 01:15:07;;;;;;;13.07;7.72;;;;;;;12.02;100.00;100021.38;4396624;32;20166;-74
2022/10/07 01:17:49;;;;;;;16.25;9.10;;;;;;;11.98;100.00;100022.59;4360341;32;20107;-75
2022/10/07 01:20:52;;;;;;;15.82;8.15;;;;;;;11.98;100.00;100017.31;4360385;32;20197;-74
2022/10/07 01:23:39;;;;;;;11.90;8.50;;;;;;;12.02;100.00;100010.88;4353012;32;20287;-75
2022/10/07 01:26:44;;;;;;;15.13;8.65;;;;;;;12.05;100.00;100014.13;4360340;32;20715;-75
2022/10/07 01:29:35;;;;;;;13.93;8.77;;;;;;;12.03;100.00;100010.75;4360305;32;20432;-74
2022/10/07 01:32:18;;;;;;;17.98;8.15;;;;;;;11.98;100.00;100007.66;4348261;32;20157;-75
2022/10/07 01:34:45;;;;;;;12.20;7.82;;;;;;;11.92;100.00;100015.97;4360219;32;20457;-75
2022/10/07 01:37:15;;;;;;;17.45;9.43;;;;;;;11.84;100.00;100015.69;4360490;32;20130;-74
2022/10/07 01:40:08;;;;;;;17.10;9.60;;;;;;;11.84;100.00;100016.53;4360409;32;20542;-74
2022/10/07 01:42:35;;;;;;;12.75;8.85;;;;;;;11.84;100.00;100013.91;4357490;32;20527;-75
2022/10/07 01:45:03;;;;;;;14.70;8.88;;;;;;;11.83;100.00;100011.41;4348242;32;20488;-75
2022/10/07 01:47:30;;;;;;;12.88;8.50;;;;;;;11.78;100.00;100011.75;4360489;32;20112;-75
2022/10/07 01:49:58;;;;;;;16.10;9.20;;;;;;;11.81;100.00;100016.75;4360054;32;20133;-74
2022/10/07 01:52:41;;;;;;;19.02;9.10;;;;;;;11.79;100.00;100015.19;4360314;32;20099;-74
2022/10/07 01:55:50;;;;;;;14.68;8.95;;;;;;;11.78;100.00;100018.75;4419747;32;20120;-74
2022/10/07 01:58:40;;;;;;;19.20;8.80;;;;;;;11.70;100.00;100014.94;4423079;32;20090;-74
2022/10/07 02:01:26;;;;;;;17.40;9.43;;;;;;;11.69;100.00;100022.94;4423439;32;20116;-74
2022/10/07 02:04:24;;;;;;;16.37;10.02;;;;;;;11.64;100.00;100009.28;4409496;32;20112;-75
2022/10/07 02:07:00;;;;;;;16.83;9.73;;;;;;;11.61;100.00;100017.38;4360094;32;20169;-74
2022/10/07 02:09:29;;;;;;;16.52;10.15;;;;;;;11.61;100.00;100010.37;4360199;32;20126;-75
2022/10/07 02:12:19;;;;;;;19.40;10.50;;;;;;;11.61;100.00;100013.00;4372494;32;20135;-75
2022/10/07 02:15:07;;;;;;;16.23;9.88;;;;;;;11.49;100.00;100012.09;4347042;32;20763;-74
2022/10/07 02:17:36;;;;;;;17.90;10.45;;;;;;;11.47;100.00;100019.22;4360071;32;20207;-74
2022/10/07 02:20:05;;;;;;;18.85;10.05;;;;;;;11.46;100.00;100028.06;4359732;32;20565;-75
2022/10/07 02:22:32;;;;;;;16.50;10.63;;;;;;;11.46;100.00;100016.72;4372701;32;20107;-74
2022/10/07 02:24:59;;;;;;;21.83;10.85;;;;;;;11.44;100.00;100018.62;4372481;32;20178;-74
2022/10/07 02:27:31;;;;;;;20.67;11.43;;;;;;;11.43;100.00;100016.94;4360027;32;20119;-74
2022/10/07 02:30:03;;;;;;;16.20;11.18;;;;;;;11.41;100.00;100009.19;4372363;32;20562;-74
2022/10/07 02:32:33;;;;;;;25.08;11.77;;;;;;;11.42;100.00;100010.88;4348075;32;20118;-74
2022/10/07 02:35:06;;;;;;;19.83;11.85;;;;;;;11.46;100.00;100012.34;4347658;32;20135;-74
2022/10/07 02:37:35;;;;;;;17.40;11.35;;;;;;;11.40;100.00;100002.28;4348190;32;20456;-74
2022/10/07 02:40:03;;;;;;;17.52;11.50;;;;;;;11.47;100.00;100007.91;4359873;32;20256;-74
2022/10/07 02:42:54;;;;;;;17.77;11.98;;;;;;;11.42;100.00;99996.91;4359987;32;20138;-74
2022/10/07 02:45:35;;;;;;;19.67;11.45;;;;;;;11.36;100.00;100003.44;4409000;32;20554;-74
2022/10/07 02:48:13;;;;;;;19.42;11.30;;;;;;;11.27;100.00;100006.75;4408664;32;20094;-74
2022/10/07 02:50:43;;;;;;;20.35;12.75;;;;;;;11.28;100.00;100009.25;4408807;32;20117;-74
2022/10/07 02:53:12;;;;;;;16.80;11.90;;;;;;;11.26;100.00;100000.63;4408783;32;20109;-74
2022/10/07 02:55:42;;;;;;;16.95;11.38;;;;;;;11.24;100.00;100002.53;4408920;32;20117;-75
2022/10/07 02:58:10;;;;;;;16.48;11.75;;;;;;;11.23;100.00;100010.53;4409000;32;20120;-74
2022/10/07 03:00:41;;;;;;;19.12;10.73;;;;;;;11.24;100.00;99997.28;4408483;32;20106;-74
2022/10/07 03:03:09;;;;;;;17.98;11.90;;;;;;;11.20;100.00;100001.09;4422616;32;20081;-74
2022/10/07 03:05:37;;;;;;;20.58;11.12;;;;;;;11.13;100.00;99998.06;4422408;32;20483;-75
2022/10/07 03:08:07;;;;;;;20.45;11.45;;;;;;;11.12;100.00;99993.78;4406157;32;20518;-74
2022/10/07 03:10:35;;;;;;;22.92;12.10;;;;;;;11.09;100.00;99996.62;4406013;32;20445;-74
2022/10/07 03:13:04;;;;;;;18.05;11.43;;;;;;;11.09;100.00;99994.00;4407255;32;20624;-74
2022/10/07 03:15:36;;;;;;;18.77;11.20;;;;;;;11.06;100.00;99996.00;4406871;32;20108;-75
2022/10/07 03:18:24;;;;;;;21.08;13.15;;;;;;;11.05;100.00;99997.78;4407081;32;20407;-74
2022/10/07 03:20:54;;;;;;;16.45;10.90;;;;;;;11.04;100.00;99993.50;4406891;32;20098;-74
2022/10/07 03:23:23;;;;;;;16.17;11.25;;;;;;;11.01;100.00;99991.09;4406928;32;20168;-75
2022/10/07 03:25:52;;;;;;;15.90;11.40;;;;;;;11.05;100.00;99987.28;4410394;32;20574;-74
2022/10/07 03:28:21;;;;;;;16.48;10.75;;;;;;;11.09;100.00;99988.75;4424417;32;20117;-74
2022/10/07 03:30:49;;;;;;;19.12;10.70;;;;;;;11.06;100.00;99991.59;4423888;32;20505;-74
2022/10/07 03:33:17;;;;;;;14.23;10.52;;;;;;;11.05;100.00;99986.47;4424303;32;20128;-74
2022/10/07 03:35:45;;;;;;;16.73;10.88;;;;;;;11.00;100.00;99985.00;4423862;32;20140;-75
2022/10/07 03:38:12;;;;;;;15.23;9.93;;;;;;;11.01;100.00;99991.09;4423782;32;20125;-74
2022/10/07 03:40:39;;;;;;;16.70;10.68;;;;;;;11.04;100.00;99996.13;4423875;32;20116;-74
2022/10/07 03:43:08;;;;;;;13.98;9.98;;;;;;;11.03;100.00;99991.81;4424094;32;20097;-75
2022/10/07 03:45:42;;;;;;;16.05;10.50;;;;;;;11.03;100.00;99993.59;4424075;32;20113;-74
2022/10/07 03:48:09;;;;;;;16.27;10.60;;;;;;;10.95;100.00;100000.22;4423800;32;20432;-74
2022/10/07 03:50:37;;;;;;;17.30;10.75;;;;;;;10.94;100.00;99989.84;4423733;32;20097;-74
2022/10/07 03:53:04;;;;;;;15.70;11.07;;;;;;;10.96;100.00;99988.81;4424133;32;20192;-74
2022/10/07 03:55:31;;;;;;;14.55;9.55;;;;;;;10.97;100.00;99992.25;4423735;32;20093;-74
2022/10/07 03:57:59;;;;;;;14.35;10.68;;;;;;;10.97;100.00;99990.47;4424093;32;20086;-74
2022/10/07 04:00:26;;;;;;;18.27;11.40;;;;;;;10.95;100.00;99987.13;4424132;32;20478;-74
2022/10/07 04:02:54;;;;;;;17.00;10.90;;;;;;;10.93;100.00;99989.03;4424058;32;20115;-74
2022/10/07 04:05:21;;;;;;;15.75;11.18;;;;;;;10.93;100.00;99988.16;4423641;32;20473;-74
2022/10/07 04:07:49;;;;;;;19.17;10.15;;;;;;;10.94;100.00;99984.59;4423336;32;20090;-76
2022/10/07 04:10:20;;;;;;;17.98;10.38;;;;;;;10.94;100.00;99987.22;4423937;32;20102;-75
2022/10/07 04:12:47;;;;;;;15.65;9.98;;;;;;;10.92;100.00;99986.50;4423682;32;20184;-75
2022/10/07 04:15:14;;;;;;;16.50;9.63;;;;;;;10.96;100.00;99980.06;4423734;32;20097;-75
2022/10/07 04:17:43;;;;;;;15.80;10.65;;;;;;;10.95;100.00;99978.44;4423529;32;20370;-75
2022/10/07 04:20:13;;;;;;;14.05;10.30;;;;;;;10.91;100.00;99980.41;4423837;32;20546;-75
2022/10/07 04:22:41;;;;;;;14.95;9.77;;;;;;;10.86;100.00;99976.47;4423685;32;20127;-75
2022/10/07 04:27:58;;;;;;;15.10;11.02;;;;;;;10.78;100.00;99975.22;4412560;32;20432;-75
2022/10/07 04:30:28;;;;;;;15.15;10.75;;;;;;;10.80;100.00;99970.69;4421610;32;20178;-75
2022/10/07 04:32:55;;;;;;;16.02;10.68;;;;;;;10.89;100.00;99978.87;4423497;32;20468;-76
2022/10/07 04:35:23;;;;;;;17.75;11.27;;;;;;;10.91;100.00;99963.84;4423226;32;20136;-75
2022/10/07 04:37:52;;;;;;;15.85;10.65;;;;;;;10.88;100.00;99975.38;4423307;32;20124;-74
2022/10/07 04:40:20;;;;;;;15.70;10.30;;;;;;;10.85;100.00;99975.59;4423713;32;20510;-75
2022/10/07 04:45:35;;;;;;;14.43;10.55;;;;;;;10.73;100.00;99969.44;4423610;32;20090;-75
2022/10/07 04:48:04;;;;;;;15.82;11.80;;;;;;;10.76;100.00;99974.47;4423450;32;20086;-75
2022/10/07 04:50:32;;;;;;;14.40;10.80;;;;;;;10.74;100.00;99970.31;4423423;32;20189;-75
2022/10/07 04:53:01;;;;;;;13.35;11.12;;;;;;;10.80;100.00;99977.72;4423653;32;20454;-75
2022/10/07 04:55:28;;;;;;;17.58;11.40;;;;;;;10.79;100.00;99981.28;4423521;32;20479;-75
2022/10/07 04:57:55;;;;;;;21.08;11.07;;;;;;;10.87;100.00;99980.75;4423333;32;20148;-75
2022/10/07 05:00:24;;;;;;;16.30;11.05;;;;;;;10.87;100.00;99981.59;4423556;32;20129;-75
2022/10/07 05:02:51;;;;;;;15.85;10.52;;;;;;;10.84;100.00;99979.19;4421995;32;20124;-74
2022/10/07 05:05:19;;;;;;;16.27;10.45;;;;;;;10.81;100.00;99985.47;4420323;32;20475;-75
2022/10/07 05:07:50;;;;;;;14.57;11.23;;;;;;;10.78;100.00;99980.47;4419128;32;20128;-75
2022/10/07 05:10:19;;;;;;;17.45;11.25;;;;;;;10.75;100.00;99985.91;4422949;32;20090;-75
2022/10/07 05:12:46;;;;;;;17.60;10.75;;;;;;;10.72;100.00;99983.50;4424130;32;20100;-76
2022/10/07 05:15:18;;;;;;;15.13;11.10;;;;;;;10.78;100.00;99985.69;4423113;32;20506;-76
2022/10/07 05:17:45;;;;;;;21.90;10.82;;;;;;;10.81;100.00;99985.47;4420336;32;20639;-75
2022/10/07 05:20:14;;;;;;;18.65;11.63;;;;;;;10.82;100.00;99987.16;4424507;32;20105;-75
2022/10/07 05:22:41;;;;;;;20.55;11.25;;;;;;;10.82;100.00;99994.19;4423786;32;20623;-77
2022/10/07 05:25:09;;;;;;;25.90;11.73;;;;;;;10.88;100.00;100000.78;4423478;32;20118;-78
2022/10/07 05:27:39;;;;;;;19.37;11.75;;;;;;;10.88;100.00;99996.34;4420393;32;20153;-78
2022/10/07 05:30:07;;;;;;;15.80;11.07;;;;;;;10.98;100.00;100002.63;4433056;32;20101;-77
2022/10/07 05:32:35;;;;;;;15.70;11.55;;;;;;;11.07;100.00;99997.69;4433166;32;20081;-78
2022/10/07 05:35:03;;;;;;;18.45;11.75;;;;;;;11.23;100.00;100000.03;4422343;32;20101;-77
2022/10/07 05:37:31;;;;;;;19.37;12.02;;;;;;;11.40;100.00;99996.19;4420775;32;20098;-76
2022/10/07 05:39:58;;;;;;;16.12;11.70;;;;;;;11.50;100.00;100002.44;4433710;32;20098;-79
2022/10/07 05:42:26;;;;;;;16.95;12.18;;;;;;;11.68;100.00;100001.06;4425148;32;20158;-77
2022/10/07 05:44:53;;;;;;;17.70;11.15;;;;;;;11.80;100.00;100003.75;4422649;32;20448;-77
2022/10/07 05:47:21;;;;;;;14.87;11.00;;;;;;;11.94;100.00;100002.75;4420467;32;20537;-77
2022/10/07 05:49:48;;;;;;;17.87;11.30;;;;;;;12.03;100.00;100008.12;4420898;32;20094;-77
2022/10/07 05:52:17;;;;;;;17.70;10.70;;;;;;;12.16;100.00;99996.72;4418617;32;20101;-75
2022/10/07 05:54:45;;;;;;;15.68;10.60;;;;;;;12.36;100.00;99996.00;4421712;32;20121;-76
2022/10/07 05:57:13;;;;;;;21.48;10.95;;;;;;;12.51;100.00;99996.62;4419362;32;20110;-77
2022/10/07 05:59:41;;;;;;;20.85;11.10;;;;;;;12.66;100.00;99997.22;4429981;32;20143;-77
2022/10/07 06:02:13;;;;;;;17.95;11.12;;;;;;;12.72;100.00;99998.53;4408922;32;20131;-76
2022/10/07 06:04:44;;;;;;;30.37;11.32;;;;;;;12.81;100.00;100003.06;4417817;32;20163;-74
2022/10/07 06:08:23;;;;;;;21.25;12.23;;;;;;;13.07;100.00;100010.69;4518525;31;128125;-76
2022/10/07 06:13:38;;;;;;;24.10;12.13;;;;;;;13.12;100.00;100021.66;4497384;31;20121;-76
2022/10/07 06:16:07;;;;;;;20.20;11.73;;;;;;;13.18;100.00;100018.53;4502872;31;20107;-77
2022/10/07 06:18:35;;;;;;;22.45;11.73;;;;;;;13.24;100.00;100022.47;4501441;31;20118;-79
2022/10/07 06:21:03;;;;;;;17.83;11.63;;;;;;;13.29;100.00;100015.91;4508252;31;20118;-78
2022/10/07 06:23:32;;;;;;;18.62;10.52;;;;;;;13.27;100.00;100015.16;4509641;31;20100;-80
2022/10/07 06:26:01;;;;;;;23.58;10.68;;;;;;;13.47;100.00;100020.66;4507812;31;20096;-78
2022/10/07 06:28:36;;;;;;;17.10;11.23;;;;;;;13.48;100.00;100019.69;4505833;31;20126;-80
2022/10/07 06:31:09;;;;;;;12.15;9.75;;;;;;;13.64;100.00;100009.59;4497643;31;20100;-79
2022/10/07 06:33:37;;;;;;;17.98;10.38;;;;;;;13.83;100.00;100011.50;4495659;31;20146;-77
2022/10/07 06:36:07;;;;;;;12.50;9.82;;;;;;;13.92;100.00;100020.47;4504371;31;20114;-78
2022/10/07 06:38:34;;;;;;;18.00;10.15;;;;;;;14.01;100.00;100017.06;4501843;31;20111;-80
2022/10/07 06:41:03;;;;;;;14.45;10.55;;;;;;;14.10;100.00;100015.44;4507944;31;20576;-81
2022/10/07 06:43:32;;;;;;;16.02;10.60;;;;;;;14.28;100.00;100009.59;4507382;31;20179;-80
2022/10/07 06:46:02;;;;;;;12.52;9.40;;;;;;;14.37;100.00;100017.53;4501325;31;20732;-79
2022/10/07 06:48:31;;;;;;;16.90;10.13;;;;;;;14.46;100.00;100004.53;4510830;31;20409;-79
2022/10/07 06:51:03;;;;;;;11.25;9.07;;;;;;;14.48;100.00;100002.63;4509561;31;20497;-78
2022/10/07 06:53:31;;;;;;;16.52;10.02;;;;;;;14.49;100.00;100004.28;4506587;31;20100;-77
2022/10/07 06:56:03;;;;;;;17.37;10.50;;;;;;;14.61;100.00;100011.19;4504276;31;20083;-78
2022/10/07 06:58:31;;;;;;;16.95;9.60;;;;;;;14.66;100.00;100013.41;4511144;31;20862;-78
2022/10/07 07:00:59;;;;;;;14.70;9.30;;;;;;;14.68;100.00;100003.56;4508858;31;20163;-80
2022/10/07 07:03:27;;;;;;;15.90;9.02;;;;;;;14.72;100.00;100000.53;4505960;31;20138;-80
2022/10/07 07:05:56;;;;;;;17.80;9.20;;;;;;;14.84;100.00;100003.06;4504570;31;20175;-82
2022/10/07 07:08:27;;;;;;;14.40;9.40;;;;;;;14.73;100.00;100009.25;4510133;31;20130;-79
2022/10/07 07:10:55;;;;;;;16.17;8.68;;;;;;;14.81;100.00;100016.53;4509329;31;20125;-77
2022/10/07 07:13:23;;;;;;;18.55;9.52;;;;;;;14.69;100.00;100011.34;4508662;31;20134;-78
2022/10/07 07:15:55;;;;;;;14.60;9.23;;;;;;;14.61;100.00;100011.19;4509516;31;20108;-78
2022/10/07 07:18:24;;;;;;;12.67;9.13;;;;;;;14.70;100.00;100007.75;4503101;31;20114;-80
2022/10/07 07:20:52;;;;;;;16.45;9.88;;;;;;;14.78;100.00;100008.88;4498750;31;20096;-77
2022/10/07 07:23:19;;;;;;;14.95;9.55;;;;;;;14.91;100.00;100009.47;4494582;31;20165;-77
2022/10/07 07:25:47;;;;;;;16.45;9.25;;;;;;;14.96;100.00;100012.53;4487872;31;20134;-77
2022/10/07 07:28:15;;;;;;;15.00;9.65;;;;;;;14.91;100.00;100004.19;4493700;31;20108;-77
2022/10/07 07:30:42;;;;;;;12.70;9.00;;;;;;;14.84;100.00;100008.34;4496353;31;20118;-77
2022/10/07 07:33:10;;;;;;;15.98;9.75;;;;;;;14.87;100.00;100013.34;4499648;31;20100;-77
2022/10/07 07:35:40;;;;;;;18.02;8.68;;;;;;;15.03;100.00;100013.69;4496335;31;20113;-78
2022/10/07 07:38:08;;;;;;;15.88;9.45;;;;;;;15.02;100.00;100016.47;4499721;31;20092;-77
2022/10/07 07:40:36;;;;;;;13.40;8.82;;;;;;;15.20;100.00;100016.59;4498543;31;20090;-78
2022/10/07 07:43:04;;;;;;;15.25;8.93;;;;;;;15.22;100.00;100006.78;4497665;31;20104;-78
2022/10/07 07:45:35;;;;;;;14.50;9.07;;;;;;;15.29;100.00;100014.97;4494179;31;20125;-77
2022/10/07 07:48:03;;;;;;;18.98;9.88;;;;;;;15.50;100.00;100012.22;4498001;31;20414;-73
2022/10/07 07:50:31;;;;;;;14.68;9.65;;;;;;;15.59;100.00;100008.72;4499825;31;20096;-76
2022/10/07 07:53:03;;;;;;;14.85;9.32;;;;;;;15.72;100.00;100011.09;4499772;31;20167;-75
2022/10/07 07:55:32;;;;;;;12.37;8.60;;;;;;;15.86;100.00;100013.34;4493401;31;20148;-73
2022/10/07 07:57:59;;;;;;;14.90;8.60;;;;;;;15.86;97.28;100012.50;4491588;31;20119;-74
2022/10/07 08:00:27;;;;;;;14.87;8.50;;;;;;;15.97;99.64;100012.34;4485696;31;20168;-74
2022/10/07 08:02:55;;;;;;;17.55;9.57;;;;;;;15.84;98.82;100006.56;4497699;31;20095;-78
2022/10/07 08:05:23;;;;;;;13.52;8.30;;;;;;;15.78;98.86;100003.47;4497759;31;20231;-75
2022/10/07 08:07:51;;;;;;;12.57;7.65;;;;;;;15.95;97.33;100003.75;4495184;31;20447;-75
2022/10/07 08:10:18;;;;;;;11.20;7.62;;;;;;;16.02;95.78;99996.91;4496328;31;20240;-74
2022/10/07 08:12:46;;;;;;;27.13;9.02;;;;;;;16.13;95.10;99999.38;4496506;31;20947;-74
2022/10/07 08:15:13;;;;;;;11.18;7.82;;;;;;;15.97;96.54;100001.78;4497314;31;20158;-73
2022/10/07 08:17:42;;;;;;;16.73;7.90;;;;;;;16.30;97.12;99986.41;4498319;31;20127;-74
2022/10/07 08:20:10;;;;;;;12.27;7.37;;;;;;;16.47;97.16;99990.09;4493759;31;20101;-73
2022/10/07 08:22:37;;;;;;;14.23;6.72;;;;;;;16.39;94.09;99985.53;4499061;31;20126;-71
2022/10/07 08:25:05;;;;;;;13.57;7.97;;;;;;;16.48;95.24;99983.84;4487851;31;20142;-72
2022/10/07 08:27:33;;;;;;;9.70;7.53;;;;;;;16.48;96.10;99982.00;4494458;31;20111;-73
2022/10/07 08:30:01;;;;;;;13.50;8.63;;;;;;;16.52;94.07;99984.38;4496675;31;20100;-72
2022/10/07 08:32:29;;;;;;;15.20;8.98;;;;;;;16.56;95.08;99991.03;4500004;31;20451;-73
2022/10/07 08:34:56;;;;;;;14.60;7.53;;;;;;;16.68;94.38;99979.28;4489594;31;20427;-72
2022/10/07 08:37:24;;;;;;;17.35;10.02;;;;;;;16.80;95.06;99987.88;4492568;31;20156;-72
2022/10/07 08:39:51;;;;;;;14.65;7.70;;;;;;;16.84;94.32;99976.84;4497410;31;20145;-72
2022/10/07 08:42:29;;;;;;;12.30;6.62;;;;;;;16.88;96.41;99976.56;4498673;31;20118;-72
2022/10/07 08:44:56;;;;;;;10.68;6.87;;;;;;;16.99;94.11;99971.91;4483124;31;20177;-72
2022/10/07 08:47:35;;;;;;;14.30;7.72;;;;;;;16.88;93.92;99981.88;4480036;31;20105;-73
2022/10/07 08:50:18;;;;;;;14.90;7.25;;;;;;;16.81;93.71;99971.84;4480224;31;20609;-73
2022/10/07 08:52:58;;;;;;;16.40;9.47;;;;;;;16.92;94.52;99975.31;4470420;32;20085;-72
2022/10/07 08:55:42;;;;;;;14.48;8.38;;;;;;;16.91;94.33;99973.62;4478415;32;20195;-73
2022/10/07 08:58:18;;;;;;;12.27;7.80;;;;;;;16.83;94.74;99972.50;4470714;31;20126;-73
2022/10/07 09:00:52;;;;;;;14.45;7.87;;;;;;;16.93;94.69;99974.34;4474212;32;20104;-73
2022/10/07 09:04:02;;;;;;;18.02;8.57;;;;;;;17.01;92.98;99967.28;4472693;31;20092;-73
2022/10/07 09:06:41;;;;;;;13.88;7.35;;;;;;;17.06;95.42;99958.91;4399972;32;20129;-73
2022/10/07 09:09:23;;;;;;;13.02;7.90;;;;;;;17.17;95.11;99963.16;4398567;32;20114;-73
2022/10/07 09:11:51;;;;;;;12.98;7.68;;;;;;;17.25;91.81;99957.13;4414794;32;20173;-73
2022/10/07 09:14:37;;;;;;;12.55;8.30;;;;;;;17.09;92.95;99948.00;4398361;32;20187;-73
2022/10/07 09:17:14;;;;;;;13.32;8.40;;;;;;;17.18;92.89;99956.88;4412739;32;20121;-73
2022/10/07 09:19:45;;;;;;;11.50;8.60;;;;;;;17.19;94.21;99951.41;4402179;32;20093;-73
2022/10/07 09:22:36;;;;;;;13.80;7.50;;;;;;;17.31;92.26;99953.88;4414477;32;20152;-73
2022/10/07 09:25:12;;;;;;;13.52;7.75;;;;;;;17.41;91.54;99953.78;4413093;32;20185;-74
2022/10/07 09:27:39;;;;;;;13.80;7.90;;;;;;;17.46;92.57;99948.88;4411577;32;20118;-73
2022/10/07 09:30:11;;;;;;;12.93;7.80;;;;;;;17.55;97.32;99945.28;4417833;32;20678;-74
2022/10/07 09:32:42;;;;;;;15.32;7.95;;;;;;;17.77;95.21;99943.94;4414758;32;20562;-74
2022/10/07 09:35:14;;;;;;;10.02;7.15;;;;;;;17.83;89.12;99935.38;4403356;32;20177;-73
2022/10/07 09:38:11;;;;;;;10.38;7.30;;;;;;;17.91;93.36;99943.44;4416984;32;20094;-73
2022/10/07 09:41:14;;;;;;;16.27;7.72;;;;;;;17.86;91.15;99936.91;4343891;33;20115;-73
2022/10/07 09:43:30;;;;;;;12.25;6.75;;;;;;;17.89;92.49;99933.97;4389262;32;20128;-74
2022/10/07 09:45:58;;;;;;;14.05;7.15;;;;;;;17.89;95.23;99934.78;4401848;32;20212;-75
2022/10/07 09:48:32;;;;;;;11.98;7.97;;;;;;;18.03;94.57;99928.09;4388317;32;20514;-74
2022/10/07 09:51:17;;;;;;;14.20;8.10;;;;;;;17.94;92.00;99928.19;4401665;32;20405;-74
2022/10/07 09:54:01;;;;;;;15.05;7.90;;;;;;;17.90;93.99;99920.56;4401291;32;20160;-74
2022/10/07 09:56:40;;;;;;;12.35;7.15;;;;;;;17.98;90.08;99918.94;4406603;32;20144;-73
2022/10/07 09:59:30;;;;;;;12.93;7.37;;;;;;;18.19;91.60;99911.44;4402998;32;20156;-74
2022/10/07 10:02:21;;;;;;;16.30;7.62;;;;;;;18.14;90.71;99910.22;4395788;32;20132;-73
2022/10/07 10:04:56;;;;;;;16.73;7.68;;;;;;;18.20;86.10;99902.50;4397548;32;20177;-75
2022/10/07 10:07:31;;;;;;;9.48;7.03;;;;;;;18.23;88.29;99896.88;4402049;32;20122;-73
2022/10/07 10:10:13;;;;;;;16.00;7.55;;;;;;;18.32;86.42;99894.25;4390337;32;20565;-75
2022/10/07 10:12:48;;;;;;;10.75;8.18;;;;;;;18.37;85.68;99899.91;4403456;32;20136;-75
2022/10/07 10:15:38;;;;;;;12.55;7.10;;;;;;;18.34;85.88;99897.59;4405197;32;20136;-75
2022/10/07 10:18:38;;;;;;;12.75;6.78;;;;;;;18.40;85.64;99891.63;4468465;32;20127;-72
2022/10/07 10:21:41;;;;;;;10.65;6.87;;;;;;;18.52;85.28;99893.00;4492157;31;20108;-75
2022/10/07 10:24:13;;;;;;;11.32;6.55;;;;;;;18.72;87.20;99884.75;4476700;31;20093;-75
2022/10/07 10:27:04;;;;;;;13.05;6.37;;;;;;;18.55;89.37;99892.69;4480538;32;20112;-75
2022/10/07 10:29:45;;;;;;;8.75;6.53;;;;;;;18.54;83.98;99887.53;4482306;31;20096;-74
2022/10/07 10:32:46;;;;;;;14.73;7.28;;;;;;;18.68;86.90;99888.72;4477047;32;20145;-74
2022/10/07 10:35:20;;;;;;;12.30;7.22;;;;;;;18.73;85.48;99881.13;4486269;31;20123;-74
2022/10/07 10:37:50;;;;;;;10.90;7.07;;;;;;;18.72;87.80;99876.81;4478029;31;20181;-74
2022/10/07 10:40:39;;;;;;;11.40;7.55;;;;;;;18.74;86.13;99869.50;4480310;31;20096;-74
2022/10/07 10:43:06;;;;;;;10.57;7.22;;;;;;;18.88;87.04;99871.56;4476937;32;20114;-75
2022/10/07 10:45:42;;;;;;;11.27;7.10;;;;;;;18.99;87.88;99872.25;4481499;31;20160;-73
2022/10/07 10:48:29;;;;;;;13.62;6.93;;;;;;;19.08;82.33;99863.28;4473243;31;20171;-77
2022/10/07 10:51:20;;;;;;;15.45;6.20;;;;;;;19.23;82.95;99858.97;4479444;31;20575;-74
2022/10/07 10:53:53;;;;;;;10.60;6.30;;;;;;;19.44;84.35;99852.28;4473617;32;20097;-75
2022/10/07 10:56:48;;;;;;;10.20;6.32;;;;;;;19.71;80.11;99842.28;4481324;32;20269;-73
2022/10/07 10:59:26;;;;;;;9.35;6.30;;;;;;;19.69;79.71;99837.94;4480882;32;20450;-75
2022/10/07 11:02:37;;;;;;;9.55;5.68;;;;;;;19.45;79.98;99838.00;4479149;32;20108;-74
2022/10/07 11:05:12;;;;;;;11.70;6.68;;;;;;;19.49;81.38;99831.38;4426742;32;20113;-74
2022/10/07 11:07:42;;;;;;;9.80;5.40;;;;;;;19.47;79.39;99826.22;4446372;32;20118;-75
2022/10/07 11:10:29;;;;;;;10.05;5.72;;;;;;;19.58;83.22;99817.06;4440005;32;20192;-75
2022/10/07 11:13:18;;;;;;;9.93;5.87;;;;;;;19.81;77.37;99817.19;4430075;32;20357;-76
2022/10/07 11:15:57;;;;;;;12.68;5.47;;;;;;;19.58;80.83;99816.25;4427388;32;20231;-76
2022/10/07 11:18:33;;;;;;;9.75;5.62;;;;;;;19.75;78.19;99812.50;4429327;32;20117;-76
2022/10/07 11:21:03;;;;;;;7.07;5.12;;;;;;;19.72;76.21;99802.22;4427619;32;20223;-76
2022/10/07 11:23:40;;;;;;;7.50;5.57;;;;;;;19.66;77.26;99790.44;4415487;32;20101;-76
2022/10/07 11:26:19;;;;;;;8.07;5.05;;;;;;;19.59;78.59;99796.63;4427942;32;20097;-76
2022/10/07 11:28:48;;;;;;;6.03;5.22;;;;;;;19.67;79.02;99783.31;4414851;32;20139;-76
2022/10/07 11:31:38;;;;;;;8.40;5.87;;;;;;;19.93;82.12;99782.25;4418195;32;20113;-76
2022/10/07 11:34:12;;;;;;;7.82;5.20;;;;;;;19.93;79.92;99780.41;4416000;32;21031;-74
2022/10/07 11:36:46;;;;;;;6.55;5.20;;;;;;;19.91;75.65;99776.25;4431952;32;20128;-75
2022/10/07 11:39:13;;;;;;;7.07;5.13;;;;;;;20.12;76.41;99776.50;4430552;32;20127;-74
2022/10/07 11:41:49;;;;;;;14.10;5.22;;;;;;;20.18;76.01;99772.28;4461935;32;20200;-77
2022/10/07 11:44:21;;;;;;;11.23;4.28;;;;;;;20.02;73.85;99774.03;4480404;32;20091;-76
2022/10/07 11:46:49;;;;;;;5.85;4.62;;;;;;;20.13;74.10;99766.69;4479412;32;20554;-75
2022/10/07 11:49:24;;;;;;;10.38;5.32;;;;;;;20.25;73.90;99753.81;4479585;31;20169;-78